Time;durP1;ratioP1;P1;durP2;ratioP2;P2;SDS_P1;SDS_P2;PMS_P1;PMS_P2;Temp;Humidity;BMP_temperature;BMP_pressure;BME280_temperature;BME280_humidity;BME280_pressure;Samples;Min_cycle;Max_cycle;Signal;HPM_P1;HPM_P2
2021/12/17 00:07:02;;;;;;;6.70;3.90;;;;;;;;;;5053518;28;20036;-64
2021/12/17 00:09:28;;;;;;;6.95;4.20;;;;;;;;;;5053071;28;20471;-65
2021/12/17 00:11:54;;;;;;;8.25;4.22;;;;;;;;;;5050754;28;20391;-65
2021/12/17 00:14:29;;;;;;;6.68;3.65;;;;;;;;;;5047176;28;20143;-64
2021/12/17 00:16:58;;;;;;;8.25;3.90;;;;;;;;;;5033810;28;20029;-64
2021/12/17 00:20:27;;;;;;;6.35;3.92;;;;;;;;;;5033152;28;20034;-66
2021/12/17 00:49:58;;;;;;;8.25;4.38;;;;;;;;;;5053156;28;20029;-64
2021/12/17 00:52:28;;;;;;;7.22;4.20;;;;;;;;;;5053056;28;20108;-66
2021/12/17 00:54:54;;;;;;;6.95;3.42;;;;;;;;;;5052686;28;20063;-65
2021/12/17 00:57:27;;;;;;;8.15;4.05;;;;;;;;;;5052944;28;20021;-65
2021/12/17 00:59:54;;;;;;;7.78;4.60;;;;;;;;;;5052765;28;20049;-65
2021/12/17 01:02:25;;;;;;;7.30;4.60;;;;;;;;;;5052496;28;20029;-68
2021/12/17 01:04:53;;;;;;;8.30;4.38;;;;;;;;;;5052945;28;20055;-66
2021/12/17 01:07:22;;;;;;;6.53;3.67;;;;;;;;;;5052197;28;20017;-65
2021/12/17 01:09:49;;;;;;;8.27;4.38;;;;;;;;;;5052165;28;20182;-64
2021/12/17 01:12:16;;;;;;;8.73;4.20;;;;;;;;;;5052518;28;20100;-64
2021/12/17 01:14:45;;;;;;;8.98;4.47;;;;;;;;;;5052246;28;20039;-65
2021/12/17 01:17:12;;;;;;;6.38;4.30;;;;;;;;;;5052447;28;20068;-62
2021/12/17 01:22:39;;;;;;;8.52;4.70;;;;;;;;;;5052507;28;20041;-66
2021/12/17 01:25:13;;;;;;;6.63;4.35;;;;;;;;;;5052311;28;20033;-65
2021/12/17 01:35:54;;;;;;;8.13;5.07;;;;;;;;;;5055749;28;20032;-64
2021/12/17 01:43:56;;;;;;;8.05;3.97;;;;;;;;;;5055514;28;20044;-65
2021/12/17 01:46:24;;;;;;;8.00;4.47;;;;;;;;;;5055625;28;20139;-65
2021/12/17 01:59:59;;;;;;;5.07;3.30;;;;;;;;;;5035900;28;20060;-65
2021/12/17 02:02:25;;;;;;;6.95;3.78;;;;;;;;;;5036309;28;20557;-65
2021/12/17 02:04:51;;;;;;;6.18;3.65;;;;;;;;;;5035953;28;20124;-64
2021/12/17 02:07:17;;;;;;;6.05;3.40;;;;;;;;;;5036742;28;20486;-63
2021/12/17 02:28:42;;;;;;;3.58;2.78;;;;;;;;;;5035454;28;20124;-64
2021/12/17 02:29:00;;;;;;;5.30;3.00;;;;;;;;;;5034636;28;20504;-64
2021/12/17 02:31:32;;;;;;;4.88;2.60;;;;;;;;;;5034949;28;20045;-65
2021/12/17 02:34:24;;;;;;;4.30;2.47;;;;;;;;;;5035645;28;20017;-64
2021/12/17 02:36:52;;;;;;;4.32;2.38;;;;;;;;;;5034671;28;20097;-65
2021/12/17 02:47:20;;;;;;;5.53;2.63;;;;;;;;;;5013182;28;20056;-65
2021/12/17 02:49:46;;;;;;;4.82;2.58;;;;;;;;;;5034558;28;20075;-65
2021/12/17 02:52:13;;;;;;;3.83;2.65;;;;;;;;;;5034460;28;20026;-66
2021/12/17 02:54:40;;;;;;;3.60;2.35;;;;;;;;;;5034487;28;20083;-63
2021/12/17 02:57:07;;;;;;;5.45;2.80;;;;;;;;;;5034732;28;20079;-64
2021/12/17 02:59:34;;;;;;;3.97;2.55;;;;;;;;;;5033772;28;20103;-65
2021/12/17 03:02:02;;;;;;;5.90;3.00;;;;;;;;;;5034254;28;20017;-65
2021/12/17 03:04:29;;;;;;;4.35;2.50;;;;;;;;;;5034612;28;20112;-65
2021/12/17 03:06:56;;;;;;;4.53;2.63;;;;;;;;;;5033863;28;20021;-65
2021/12/17 03:09:37;;;;;;;4.75;2.58;;;;;;;;;;5034425;28;20028;-64
2021/12/17 03:12:08;;;;;;;4.65;2.72;;;;;;;;;;5034760;28;20028;-65
2021/12/17 03:14:45;;;;;;;3.35;2.28;;;;;;;;;;5033871;28;20407;-65
2021/12/17 03:17:18;;;;;;;3.72;2.60;;;;;;;;;;5034438;28;20071;-65
2021/12/17 03:25:08;;;;;;;7.38;3.55;;;;;;;;;;5033949;28;20121;-64
2021/12/17 03:27:34;;;;;;;5.20;2.83;;;;;;;;;;5033817;28;20453;-65
2021/12/17 03:30:00;;;;;;;7.90;3.50;;;;;;;;;;5034034;28;20075;-65
2021/12/17 03:32:26;;;;;;;6.18;3.83;;;;;;;;;;5034042;28;20018;-64
2021/12/17 03:34:53;;;;;;;6.75;3.67;;;;;;;;;;5033795;28;20044;-65
2021/12/17 03:37:19;;;;;;;6.70;4.03;;;;;;;;;;5034118;28;20025;-65
2021/12/17 03:39:45;;;;;;;4.80;2.90;;;;;;;;;;5034040;28;20028;-64
2021/12/17 03:42:14;;;;;;;7.20;3.85;;;;;;;;;;5033376;28;20433;-66
2021/12/17 03:44:40;;;;;;;6.63;4.07;;;;;;;;;;5034215;28;20029;-65
2021/12/17 03:47:06;;;;;;;5.82;3.70;;;;;;;;;;5032232;28;20029;-65
2021/12/17 03:49:36;;;;;;;6.15;3.85;;;;;;;;;;5033446;28;20026;-65
2021/12/17 03:52:05;;;;;;;6.22;3.17;;;;;;;;;;5033669;28;20021;-65
2021/12/17 03:54:33;;;;;;;6.53;3.13;;;;;;;;;;5033695;28;20476;-66
2021/12/17 03:57:00;;;;;;;6.13;3.50;;;;;;;;;;5033103;28;20043;-65
2021/12/17 03:59:26;;;;;;;5.68;3.30;;;;;;;;;;5033634;28;20037;-66
2021/12/17 04:01:52;;;;;;;6.05;3.60;;;;;;;;;;5033259;28;20494;-65
2021/12/17 04:04:18;;;;;;;5.85;3.35;;;;;;;;;;5033011;28;20468;-65
2021/12/17 04:06:44;;;;;;;7.80;4.10;;;;;;;;;;5033333;28;20014;-66
2021/12/17 04:09:11;;;;;;;6.25;4.18;;;;;;;;;;5033266;28;20018;-64
2021/12/17 04:11:37;;;;;;;12.20;5.45;;;;;;;;;;5033781;28;20072;-64
2021/12/17 04:14:03;;;;;;;10.50;5.35;;;;;;;;;;5033471;28;20468;-65
2021/12/17 04:16:32;;;;;;;10.77;4.80;;;;;;;;;;5033141;28;20029;-64
2021/12/17 04:18:59;;;;;;;9.00;5.18;;;;;;;;;;5033919;28;20067;-66
2021/12/17 04:21:26;;;;;;;9.15;5.05;;;;;;;;;;5032926;28;20484;-64
2021/12/17 04:23:54;;;;;;;8.38;5.38;;;;;;;;;;5032901;28;20029;-64
2021/12/17 04:26:20;;;;;;;8.52;4.78;;;;;;;;;;5033084;28;20034;-66
2021/12/17 04:28:50;;;;;;;7.90;4.72;;;;;;;;;;5033371;28;20020;-66
2021/12/17 04:31:17;;;;;;;9.77;5.00;;;;;;;;;;5032685;28;20104;-64
2021/12/17 04:33:44;;;;;;;9.25;5.10;;;;;;;;;;5033302;28;20104;-66
2021/12/17 04:36:18;;;;;;;12.80;5.63;;;;;;;;;;5032901;28;20388;-65
2021/12/17 04:38:44;;;;;;;8.88;4.82;;;;;;;;;;5032970;28;20017;-64
2021/12/17 04:41:39;;;;;;;12.73;5.90;;;;;;;;;;5032860;28;20567;-64
2021/12/17 04:44:13;;;;;;;8.75;4.65;;;;;;;;;;5032764;28;20041;-65
2021/12/17 04:57:27;;;;;;;7.50;4.22;;;;;;;;;;5033155;28;20037;-65
2021/12/17 04:59:57;;;;;;;7.65;4.35;;;;;;;;;;5032630;28;20077;-65
2021/12/17 05:02:23;;;;;;;8.40;4.38;;;;;;;;;;5036041;28;20032;-66
2021/12/17 05:04:49;;;;;;;6.90;4.47;;;;;;;;;;5036794;28;20028;-65
2021/12/17 05:07:16;;;;;;;8.88;4.85;;;;;;;;;;5036168;28;20032;-67
2021/12/17 05:21:11;;;;;;;9.88;4.82;;;;;;;;;;5035890;28;20115;-64
2021/12/17 05:23:05;;;;;;;10.80;5.53;;;;;;;;;;5027057;28;20117;-67
2021/12/17 05:25:32;;;;;;;8.40;4.97;;;;;;;;;;5036101;28;20112;-64
2021/12/17 05:28:02;;;;;;;9.50;5.57;;;;;;;;;;5035728;28;20025;-66
2021/12/17 05:30:35;;;;;;;8.17;3.90;;;;;;;;;;5036093;28;20494;-65
2021/12/17 05:33:01;;;;;;;5.75;3.83;;;;;;;;;;5035698;28;20028;-65
2021/12/17 05:35:28;;;;;;;6.90;3.70;;;;;;;;;;5036248;28;20022;-65
2021/12/17 05:37:54;;;;;;;6.55;4.45;;;;;;;;;;5036393;28;20022;-66
2021/12/17 05:40:21;;;;;;;8.40;4.47;;;;;;;;;;5035765;28;20039;-66
2021/12/17 05:42:50;;;;;;;11.15;5.18;;;;;;;;;;5035697;28;20097;-67
2021/12/17 05:45:34;;;;;;;9.18;4.40;;;;;;;;;;5035760;28;20472;-65
2021/12/17 05:48:08;;;;;;;8.30;4.72;;;;;;;;;;5035747;28;20022;-66
2021/12/17 05:50:35;;;;;;;10.38;5.07;;;;;;;;;;5035711;28;20029;-66
2021/12/17 05:53:01;;;;;;;13.57;5.15;;;;;;;;;;5035614;28;20531;-64
2021/12/17 05:55:27;;;;;;;8.30;5.05;;;;;;;;;;5034898;28;20582;-65
2021/12/17 05:57:54;;;;;;;10.65;5.22;;;;;;;;;;5035873;28;20022;-64
2021/12/17 06:00:21;;;;;;;8.25;4.63;;;;;;;;;;5035302;28;20045;-65
2021/12/17 06:02:50;;;;;;;7.25;4.70;;;;;;;;;;5035480;28;20341;-65
2021/12/17 06:05:16;;;;;;;8.95;4.40;;;;;;;;;;5035743;28;20018;-67
2021/12/17 06:07:42;;;;;;;7.75;4.10;;;;;;;;;;5035524;28;20022;-64
2021/12/17 06:10:09;;;;;;;7.63;4.00;;;;;;;;;;5035448;28;20060;-65
2021/12/17 06:12:36;;;;;;;13.90;5.30;;;;;;;;;;5034332;28;20057;-68
2021/12/17 06:15:04;;;;;;;8.40;4.28;;;;;;;;;;5033276;28;20550;-67
2021/12/17 06:17:30;;;;;;;9.77;4.40;;;;;;;;;;5035198;28;20109;-65
2021/12/17 06:19:56;;;;;;;9.38;4.10;;;;;;;;;;5034899;28;20491;-66
2021/12/17 06:22:22;;;;;;;8.52;3.95;;;;;;;;;;5035079;28;20079;-66
2021/12/17 06:24:49;;;;;;;8.15;3.35;;;;;;;;;;5035002;28;20036;-65
2021/12/17 06:27:16;;;;;;;6.07;3.47;;;;;;;;;;5034915;28;20025;-67
2021/12/17 06:29:43;;;;;;;10.43;4.07;;;;;;;;;;5035080;28;20079;-66
2021/12/17 06:32:09;;;;;;;7.18;3.92;;;;;;;;;;5034820;28;20021;-67
2021/12/17 06:34:36;;;;;;;10.27;5.07;;;;;;;;;;5035108;28;20053;-65
2021/12/17 06:37:03;;;;;;;14.38;6.07;;;;;;;;;;5034441;28;20511;-68
2021/12/17 06:39:29;;;;;;;22.52;8.65;;;;;;;;;;5034679;28;20025;-65
2021/12/17 06:41:56;;;;;;;20.52;9.50;;;;;;;;;;5034587;28;20037;-66
2021/12/17 06:44:24;;;;;;;19.33;8.85;;;;;;;;;;5033030;28;20407;-65
2021/12/17 07:10:47;;;;;;;6.43;3.42;;;;;;;;;;5033429;28;20068;-66
2021/12/17 07:39:57;;;;;;;10.07;4.05;;;;;;;;;;5033835;28;20025;-67
2021/12/17 07:42:24;;;;;;;7.07;3.75;;;;;;;;;;5034012;28;20029;-66
2021/12/17 07:44:50;;;;;;;8.80;3.80;;;;;;;;;;5034604;28;20049;-66
2021/12/17 07:47:16;;;;;;;7.07;3.90;;;;;;;;;;5033712;28;20025;-66
2021/12/17 07:49:42;;;;;;;6.55;3.67;;;;;;;;;;5033734;28;20017;-66
2021/12/17 07:52:08;;;;;;;9.95;4.43;;;;;;;;;;5032705;28;20053;-67
2021/12/17 07:54:35;;;;;;;9.20;4.55;;;;;;;;;;5033599;28;20089;-65
2021/12/17 07:57:01;;;;;;;8.45;5.15;;;;;;;;;;5033944;28;20055;-67
2021/12/17 07:59:27;;;;;;;12.82;6.20;;;;;;;;;;5033621;28;20050;-66
2021/12/17 08:01:53;;;;;;;8.75;5.18;;;;;;;;;;5033490;28;20030;-66
2021/12/17 08:04:21;;;;;;;7.43;4.88;;;;;;;;;;5034081;28;20033;-65
2021/12/17 08:06:47;;;;;;;10.88;5.47;;;;;;;;;;5033607;28;20104;-66
2021/12/17 08:09:13;;;;;;;8.63;4.65;;;;;;;;;;5033183;28;20029;-65
2021/12/17 08:11:40;;;;;;;10.18;4.97;;;;;;;;;;5034248;28;20021;-65
2021/12/17 08:14:16;;;;;;;9.98;5.47;;;;;;;;;;5033279;28;20026;-65
2021/12/17 08:16:57;;;;;;;9.13;4.97;;;;;;;;;;5033612;28;20021;-67
2021/12/17 08:25:14;;;;;;;9.60;5.13;;;;;;;;;;5033323;28;20548;-67
2021/12/17 08:28:03;;;;;;;7.78;4.43;;;;;;;;;;5033556;28;20464;-66
2021/12/17 08:30:38;;;;;;;9.18;5.25;;;;;;;;;;5033503;28;20021;-65
2021/12/17 08:33:05;;;;;;;10.90;5.47;;;;;;;;;;5033803;28;20024;-65
2021/12/17 08:35:32;;;;;;;10.68;5.65;;;;;;;;;;5033188;28;20037;-66
2021/12/17 08:37:58;;;;;;;12.48;6.25;;;;;;;;;;5037793;28;20479;-65
2021/12/17 08:40:26;;;;;;;12.02;6.70;;;;;;;;;;5037329;28;20387;-66
2021/12/17 08:42:53;;;;;;;12.93;6.10;;;;;;;;;;5037267;28;20460;-67
2021/12/17 08:45:20;;;;;;;11.82;6.43;;;;;;;;;;5037364;28;20028;-66
2021/12/17 08:47:47;;;;;;;14.18;8.25;;;;;;;;;;5037029;28;20377;-67
2021/12/17 08:50:13;;;;;;;15.40;8.02;;;;;;;;;;5037074;28;20049;-68
2021/12/17 08:52:40;;;;;;;11.13;6.80;;;;;;;;;;5035965;28;20033;-68
2021/12/17 08:55:07;;;;;;;12.68;7.10;;;;;;;;;;5037068;28;20021;-65
2021/12/17 08:57:33;;;;;;;12.18;6.22;;;;;;;;;;5035779;28;20026;-66
2021/12/17 09:00:04;;;;;;;12.88;5.90;;;;;;;;;;5037384;28;20049;-68
2021/12/17 09:02:33;;;;;;;10.45;6.10;;;;;;;;;;5036823;28;20480;-66
2021/12/17 09:04:59;;;;;;;10.52;6.47;;;;;;;;;;5036694;28;20516;-66
2021/12/17 09:07:25;;;;;;;12.65;7.47;;;;;;;;;;5036927;28;20072;-66
2021/12/17 09:09:51;;;;;;;11.40;7.00;;;;;;;;;;5036632;28;20063;-66
2021/12/17 09:12:17;;;;;;;11.00;6.50;;;;;;;;;;5036562;28;20113;-66
2021/12/17 09:14:44;;;;;;;11.30;6.63;;;;;;;;;;5036843;28;20041;-65
2021/12/17 09:17:10;;;;;;;12.30;6.45;;;;;;;;;;5036126;28;20030;-68
2021/12/17 09:19:36;;;;;;;16.23;7.28;;;;;;;;;;5036981;28;20031;-67
2021/12/17 09:22:02;;;;;;;14.00;7.60;;;;;;;;;;5035323;28;20041;-66
2021/12/17 09:24:29;;;;;;;14.50;8.40;;;;;;;;;;5036347;28;20021;-67
2021/12/17 09:26:55;;;;;;;15.85;7.90;;;;;;;;;;5036596;28;20020;-66
2021/12/17 09:29:21;;;;;;;14.77;7.40;;;;;;;;;;5036242;28;20445;-66
2021/12/17 09:31:47;;;;;;;15.65;8.07;;;;;;;;;;5035936;28;20025;-65
2021/12/17 09:34:13;;;;;;;17.58;9.05;;;;;;;;;;5036427;28;20025;-66
2021/12/17 09:36:40;;;;;;;11.80;7.13;;;;;;;;;;5036498;28;20475;-67
2021/12/17 09:39:06;;;;;;;13.35;7.00;;;;;;;;;;5036245;28;20037;-65
2021/12/17 09:41:32;;;;;;;14.18;8.27;;;;;;;;;;5035891;28;20030;-68
2021/12/17 09:43:58;;;;;;;16.63;8.10;;;;;;;;;;5036512;28;20452;-67
2021/12/17 09:46:25;;;;;;;14.82;7.85;;;;;;;;;;5035910;28;20083;-66
2021/12/17 09:48:51;;;;;;;13.13;7.88;;;;;;;;;;5036355;28;20026;-67
2021/12/17 09:51:19;;;;;;;11.63;6.68;;;;;;;;;;5036139;28;20373;-67
2021/12/17 09:53:45;;;;;;;12.27;6.70;;;;;;;;;;5035476;28;20039;-67
2021/12/17 09:56:11;;;;;;;12.50;7.53;;;;;;;;;;5035834;28;20521;-66
2021/12/17 09:58:38;;;;;;;15.25;7.28;;;;;;;;;;5035596;28;20460;-66
2021/12/17 10:01:05;;;;;;;15.95;8.45;;;;;;;;;;5035731;28;20037;-66
2021/12/17 10:03:31;;;;;;;16.27;8.20;;;;;;;;;;5035983;28;20104;-67
2021/12/17 10:05:57;;;;;;;15.13;8.05;;;;;;;;;;5035920;28;20032;-67
2021/12/17 10:08:24;;;;;;;23.27;11.82;;;;;;;;;;5035414;28;20024;-66
2021/12/17 10:10:51;;;;;;;18.33;10.02;;;;;;;;;;5035780;28;20029;-66
2021/12/17 10:13:28;;;;;;;19.83;10.48;;;;;;;;;;5035659;28;20038;-67
2021/12/17 10:15:59;;;;;;;16.52;9.73;;;;;;;;;;5035703;28;20075;-68
2021/12/17 10:18:34;;;;;;;16.55;8.65;;;;;;;;;;5035648;28;20021;-66
2021/12/17 10:21:03;;;;;;;38.88;16.95;;;;;;;;;;5035416;28;20056;-65
2021/12/17 10:23:30;;;;;;;18.75;8.93;;;;;;;;;;5035587;28;20021;-68
2021/12/17 10:25:56;;;;;;;13.45;7.97;;;;;;;;;;5035553;28;20029;-67
2021/12/17 10:28:23;;;;;;;13.63;7.75;;;;;;;;;;5034943;28;20369;-68
2021/12/17 10:30:50;;;;;;;14.23;7.72;;;;;;;;;;5035485;28;20026;-66
2021/12/17 10:33:20;;;;;;;12.38;7.20;;;;;;;;;;5035603;28;20049;-67
2021/12/17 10:35:49;;;;;;;10.35;5.88;;;;;;;;;;5035125;28;20021;-66
2021/12/17 10:38:17;;;;;;;13.85;6.88;;;;;;;;;;5035341;28;20108;-67
2021/12/17 10:41:09;;;;;;;10.63;5.97;;;;;;;;;;5033938;28;20095;-67
2021/12/17 10:43:40;;;;;;;9.73;5.90;;;;;;;;;;5034853;28;20036;-67
2021/12/17 10:48:51;;;;;;;7.93;5.47;;;;;;;;;;5034943;28;20448;-68
2021/12/17 10:54:20;;;;;;;8.27;5.22;;;;;;;;;;5015296;28;20022;-65
2021/12/17 10:56:53;;;;;;;8.90;5.43;;;;;;;;;;5034760;28;20014;-67
2021/12/17 10:59:31;;;;;;;10.30;5.55;;;;;;;;;;5034240;28;20046;-68
2021/12/17 11:02:05;;;;;;;9.90;4.88;;;;;;;;;;5035195;28;20030;-68
2021/12/17 11:04:36;;;;;;;11.00;5.45;;;;;;;;;;5037778;28;20063;-66
2021/12/17 11:07:04;;;;;;;9.27;5.57;;;;;;;;;;5037275;28;20068;-66
2021/12/17 11:09:50;;;;;;;10.77;6.00;;;;;;;;;;5035854;28;20076;-68
2021/12/17 11:12:27;;;;;;;8.75;5.18;;;;;;;;;;5035560;28;20120;-66
2021/12/17 11:14:53;;;;;;;10.45;5.40;;;;;;;;;;5035811;28;20100;-67
2021/12/17 11:17:21;;;;;;;8.23;4.80;;;;;;;;;;5035630;28;20022;-68
2021/12/17 11:19:49;;;;;;;8.10;5.07;;;;;;;;;;5034747;28;20017;-67
2021/12/17 11:22:16;;;;;;;9.30;5.35;;;;;;;;;;5034567;28;20036;-67
2021/12/17 11:24:42;;;;;;;9.38;5.03;;;;;;;;;;5033893;28;20025;-67
2021/12/17 11:27:08;;;;;;;10.55;6.63;;;;;;;;;;5034638;28;20026;-67
2021/12/17 11:29:35;;;;;;;10.98;6.70;;;;;;;;;;5034064;28;20021;-67
2021/12/17 11:32:02;;;;;;;10.60;5.40;;;;;;;;;;5033951;28;20117;-68
2021/12/17 11:34:30;;;;;;;6.97;4.50;;;;;;;;;;5033988;28;20025;-67
2021/12/17 11:37:00;;;;;;;7.18;4.47;;;;;;;;;;5034200;28;20468;-68
2021/12/17 11:39:37;;;;;;;9.02;5.25;;;;;;;;;;5032834;28;20026;-67
2021/12/17 11:42:17;;;;;;;8.68;5.22;;;;;;;;;;5033805;28;20025;-68
2021/12/17 11:44:53;;;;;;;11.32;5.68;;;;;;;;;;5034343;28;20033;-68
2021/12/17 11:47:21;;;;;;;11.00;5.60;;;;;;;;;;5032676;28;20072;-67
2021/12/17 11:49:50;;;;;;;10.60;5.55;;;;;;;;;;5033605;28;20037;-67
2021/12/17 11:52:36;;;;;;;12.85;5.07;;;;;;;;;;5033584;28;20484;-67
2021/12/17 11:55:21;;;;;;;7.35;4.18;;;;;;;;;;5034122;28;20030;-68
2021/12/17 11:57:51;;;;;;;14.30;5.85;;;;;;;;;;5034144;28;20480;-67
2021/12/17 12:00:22;;;;;;;8.30;5.28;;;;;;;;;;5033686;28;20120;-69
2021/12/17 12:02:50;;;;;;;10.95;6.07;;;;;;;;;;5033090;28;20064;-67
2021/12/17 12:05:34;;;;;;;12.23;6.30;;;;;;;;;;5033172;28;20076;-67
2021/12/17 12:08:33;;;;;;;19.52;7.57;;;;;;;;;;5033986;28;20026;-66
2021/12/17 12:11:11;;;;;;;15.43;7.25;;;;;;;;;;5021264;28;20030;-69
2021/12/17 12:13:38;;;;;;;12.77;6.43;;;;;;;;;;5033378;28;20052;-68
2021/12/17 12:16:05;;;;;;;11.05;7.00;;;;;;;;;;5033384;28;20092;-68
2021/12/17 12:18:40;;;;;;;14.10;8.30;;;;;;;;;;5033356;28;20049;-68
2021/12/17 12:21:07;;;;;;;9.30;5.75;;;;;;;;;;5032949;28;20025;-66
2021/12/17 12:23:33;;;;;;;9.90;5.88;;;;;;;;;;5033802;28;20025;-70
2021/12/17 12:26:07;;;;;;;12.88;6.47;;;;;;;;;;5033204;28;20046;-67
2021/12/17 12:28:53;;;;;;;11.35;6.57;;;;;;;;;;5032739;28;20021;-66
2021/12/17 12:31:33;;;;;;;11.05;5.30;;;;;;;;;;5033518;28;20436;-67
2021/12/17 12:36:46;;;;;;;10.50;5.03;;;;;;;;;;5033516;28;20040;-67
2021/12/17 12:39:30;;;;;;;10.20;5.00;;;;;;;;;;5033335;28;20075;-67
2021/12/17 12:41:57;;;;;;;11.90;6.07;;;;;;;;;;5032523;28;20423;-67
2021/12/17 12:44:42;;;;;;;9.10;5.95;;;;;;;;;;5033136;28;20165;-69
2021/12/17 12:47:17;;;;;;;11.13;6.63;;;;;;;;;;5032678;28;20087;-69
2021/12/17 12:49:45;;;;;;;14.90;6.88;;;;;;;;;;5032473;28;20048;-67
2021/12/17 12:52:29;;;;;;;12.57;6.50;;;;;;;;;;5031257;28;20022;-69
2021/12/17 12:54:58;;;;;;;13.95;7.03;;;;;;;;;;5033383;28;20049;-67
2021/12/17 12:57:30;;;;;;;14.00;7.07;;;;;;;;;;5033236;28;20071;-67
2021/12/17 12:59:58;;;;;;;11.18;6.22;;;;;;;;;;5032987;28;20100;-68
2021/12/17 13:02:25;;;;;;;15.32;6.70;;;;;;;;;;5032789;28;20025;-68
2021/12/17 13:04:55;;;;;;;11.10;6.10;;;;;;;;;;5033198;28;20021;-67
2021/12/17 13:07:32;;;;;;;10.93;6.65;;;;;;;;;;5033061;28;20388;-68
2021/12/17 13:09:58;;;;;;;10.57;6.20;;;;;;;;;;5032565;28;20036;-67
2021/12/17 13:12:27;;;;;;;15.50;8.82;;;;;;;;;;5032941;28;20034;-66
2021/12/17 13:14:58;;;;;;;19.55;9.50;;;;;;;;;;5033172;28;20017;-68
2021/12/17 13:20:05;;;;;;;17.52;10.48;;;;;;;;;;5032753;28;20017;-67
2021/12/17 13:20:43;;;;;;;;;;;;;;;;;;5032984;28;20507;-67
2021/12/17 13:23:15;;;;;;;11.82;6.72;;;;;;;;;;5035591;28;19996;-68
2021/12/17 13:25:41;;;;;;;14.60;6.97;;;;;;;;;;5036121;28;20041;-68
2021/12/17 13:28:07;;;;;;;10.50;6.72;;;;;;;;;;5036740;28;20018;-67
2021/12/17 13:30:33;;;;;;;11.80;6.82;;;;;;;;;;5036359;28;20023;-70
2021/12/17 13:33:00;;;;;;;13.80;6.82;;;;;;;;;;5036222;28;20030;-68
2021/12/17 13:35:27;;;;;;;9.02;5.70;;;;;;;;;;5049173;28;20032;-69
2021/12/17 13:37:59;;;;;;;11.93;6.72;;;;;;;;;;5054566;28;20091;-68
2021/12/17 13:40:27;;;;;;;10.95;5.90;;;;;;;;;;5055971;28;20020;-68
2021/12/17 13:42:55;;;;;;;16.38;9.60;;;;;;;;;;5055832;28;20039;-69
2021/12/17 13:45:21;;;;;;;17.95;7.20;;;;;;;;;;5054872;28;20463;-69
2021/12/17 13:47:47;;;;;;;14.10;7.38;;;;;;;;;;5052810;28;20067;-69
2021/12/17 13:50:19;;;;;;;12.43;7.35;;;;;;;;;;5055312;28;20027;-67
2021/12/17 13:52:58;;;;;;;16.05;8.38;;;;;;;;;;5054620;28;20024;-66
2021/12/17 13:55:29;;;;;;;13.02;6.65;;;;;;;;;;5055181;28;20043;-70
2021/12/17 13:57:56;;;;;;;14.32;7.97;;;;;;;;;;5054996;28;20705;-68
2021/12/17 14:00:24;;;;;;;13.38;7.28;;;;;;;;;;5054903;28;20102;-68
2021/12/17 14:02:53;;;;;;;16.23;7.68;;;;;;;;;;5055106;28;20025;-67
2021/12/17 14:05:29;;;;;;;15.18;7.40;;;;;;;;;;5045399;28;20547;-68
2021/12/17 14:07:59;;;;;;;14.90;8.07;;;;;;;;;;5053750;28;20371;-68
2021/12/17 14:10:30;;;;;;;12.68;7.10;;;;;;;;;;5055603;28;20032;-70
2021/12/17 14:12:56;;;;;;;;;;;;;;;;;;5055411;28;20017;-68
2021/12/17 14:15:30;;;;;;;16.35;8.18;;;;;;;;;;5054919;28;19958;-71
2021/12/17 14:17:57;;;;;;;16.40;8.52;;;;;;;;;;5055233;28;20129;-68
2021/12/17 14:20:25;;;;;;;16.02;8.45;;;;;;;;;;5055172;28;20430;-68
2021/12/17 14:22:52;;;;;;;18.98;7.65;;;;;;;;;;5055427;28;20043;-69
2021/12/17 14:25:26;;;;;;;15.23;8.57;;;;;;;;;;5055377;28;20021;-70
2021/12/17 14:27:53;;;;;;;17.35;9.63;;;;;;;;;;5055003;28;20017;-69
2021/12/17 14:30:32;;;;;;;16.38;8.77;;;;;;;;;;5055020;28;20430;-68
2021/12/17 14:32:58;;;;;;;26.15;12.05;;;;;;;;;;5053580;28;20049;-68
2021/12/17 14:35:45;;;;;;;23.27;12.60;;;;;;;;;;5054907;28;20411;-68
2021/12/17 14:38:11;;;;;;;28.55;12.75;;;;;;;;;;5055169;28;20377;-68
2021/12/17 14:40:46;;;;;;;31.90;12.93;;;;;;;;;;5046417;28;20128;-68
2021/12/17 14:43:32;;;;;;;21.23;11.93;;;;;;;;;;5054990;28;20549;-69
2021/12/17 14:46:09;;;;;;;31.77;14.57;;;;;;;;;;5054827;28;20025;-67
2021/12/17 14:48:43;;;;;;;24.15;13.43;;;;;;;;;;5055378;28;20094;-68
2021/12/17 15:04:40;;;;;;;32.75;15.57;;;;;;;;;;5051440;28;20028;-67
2021/12/17 15:07:06;;;;;;;35.20;14.93;;;;;;;;;;5044837;28;20079;-68
2021/12/17 15:09:34;;;;;;;25.25;12.93;;;;;;;;;;5034592;28;20063;-68
2021/12/17 15:12:11;;;;;;;26.90;13.57;;;;;;;;;;5034545;28;20464;-68
2021/12/17 15:14:37;;;;;;;29.45;14.68;;;;;;;;;;5034338;28;20017;-68
2021/12/17 15:17:04;;;;;;;27.42;13.77;;;;;;;;;;5034261;28;20498;-68
2021/12/17 15:19:30;;;;;;;29.98;15.38;;;;;;;;;;5042447;28;20019;-68
2021/12/17 15:21:57;;;;;;;31.98;15.82;;;;;;;;;;5053930;28;20029;-73
2021/12/17 15:24:23;;;;;;;28.48;13.77;;;;;;;;;;5054608;28;20475;-70
2021/12/17 15:26:49;;;;;;;29.98;16.38;;;;;;;;;;5065234;28;20107;-68
2021/12/17 15:29:17;;;;;;;31.00;16.45;;;;;;;;;;5073842;28;20372;-68
2021/12/17 15:31:43;;;;;;;33.22;16.50;;;;;;;;;;5074434;28;20352;-68
2021/12/17 15:34:09;;;;;;;36.90;16.75;;;;;;;;;;5057772;28;20017;-70
2021/12/17 15:36:35;;;;;;;35.10;18.23;;;;;;;;;;5054038;28;20032;-70
2021/12/17 15:39:01;;;;;;;33.90;15.02;;;;;;;;;;5054042;28;20095;-69
2021/12/17 15:41:28;;;;;;;24.00;12.20;;;;;;;;;;5072643;28;20029;-69
2021/12/17 15:43:54;;;;;;;29.75;15.05;;;;;;;;;;5073633;28;20028;-70
2021/12/17 15:46:20;;;;;;;35.45;18.30;;;;;;;;;;5073472;28;20017;-70
2021/12/17 15:48:46;;;;;;;36.83;17.85;;;;;;;;;;5073841;28;20020;-69
2021/12/17 15:51:12;;;;;;;32.92;16.33;;;;;;;;;;5073527;28;20035;-69
2021/12/17 15:53:39;;;;;;;45.58;18.85;;;;;;;;;;5070583;28;20031;-69
2021/12/17 15:56:05;;;;;;;30.45;14.70;;;;;;;;;;5073752;28;20028;-69
2021/12/17 15:58:31;;;;;;;29.45;14.02;;;;;;;;;;5070172;28;20013;-69
2021/12/17 16:00:57;;;;;;;31.25;16.00;;;;;;;;;;5053389;28;20120;-69
2021/12/17 16:03:31;;;;;;;36.15;18.63;;;;;;;;;;5053310;28;20463;-70
2021/12/17 16:05:57;;;;;;;32.10;16.17;;;;;;;;;;5053392;28;20068;-70
2021/12/17 16:08:23;;;;;;;27.42;16.60;;;;;;;;;;5053633;28;20021;-70
2021/12/17 16:21:40;;;;;;;24.20;13.38;;;;;;;;;;5053079;28;20033;-70
2021/12/17 16:24:06;;;;;;;23.55;12.80;;;;;;;;;;5052672;28;20368;-69
2021/12/17 16:26:32;;;;;;;26.67;14.02;;;;;;;;;;5053529;28;20044;-69
2021/12/17 16:28:58;;;;;;;27.23;15.63;;;;;;;;;;5053461;28;20021;-69
2021/12/17 16:31:26;;;;;;;25.58;11.77;;;;;;;;;;5052493;28;20025;-70
2021/12/17 16:34:01;;;;;;;25.75;12.52;;;;;;;;;;5053276;28;20031;-70
2021/12/17 16:36:28;;;;;;;21.88;13.20;;;;;;;;;;5053194;28;20028;-71
2021/12/17 16:38:54;;;;;;;27.98;14.18;;;;;;;;;;5052407;28;20100;-70
2021/12/17 16:41:20;;;;;;;26.95;14.52;;;;;;;;;;5053169;28;20349;-70
2021/12/17 16:43:50;;;;;;;27.83;14.45;;;;;;;;;;5068136;28;20029;-69
2021/12/17 16:48:46;;;;;;;29.80;14.63;;;;;;;;;;5052613;28;20268;-69
2021/12/17 16:51:13;;;;;;;40.58;18.15;;;;;;;;;;5052815;28;20434;-70
2021/12/17 16:53:39;;;;;;;34.60;16.70;;;;;;;;;;5052735;28;20059;-69
2021/12/17 16:56:06;;;;;;;34.75;16.67;;;;;;;;;;5053380;28;20111;-70
2021/12/17 16:58:33;;;;;;;28.95;15.57;;;;;;;;;;5058165;28;20537;-69
2021/12/17 17:01:00;;;;;;;23.48;13.43;;;;;;;;;;5076657;28;20103;-69
2021/12/17 17:03:26;;;;;;;26.55;14.35;;;;;;;;;;5077433;28;20040;-70
2021/12/17 17:05:53;;;;;;;29.30;15.75;;;;;;;;;;5075569;28;20024;-69
2021/12/17 17:08:19;;;;;;;29.27;15.73;;;;;;;;;;5076467;28;20020;-68
2021/12/17 17:10:52;;;;;;;29.45;15.40;;;;;;;;;;5076345;28;20579;-68
2021/12/17 17:13:19;;;;;;;28.15;13.75;;;;;;;;;;5076369;28;20024;-69
2021/12/17 17:15:45;;;;;;;39.15;19.35;;;;;;;;;;5074216;28;20402;-69
2021/12/17 17:18:12;;;;;;;34.67;19.55;;;;;;;;;;5074965;28;20016;-69
2021/12/17 17:20:38;;;;;;;29.35;14.90;;;;;;;;;;5075595;28;20052;-69
2021/12/17 17:23:04;;;;;;;28.25;16.80;;;;;;;;;;5076428;28;20094;-70
2021/12/17 17:25:30;;;;;;;26.23;13.88;;;;;;;;;;5076575;28;20020;-68
2021/12/17 17:27:57;;;;;;;28.25;14.57;;;;;;;;;;5076253;28;20029;-70
2021/12/17 17:30:24;;;;;;;27.20;15.25;;;;;;;;;;5076282;28;20016;-70
2021/12/17 17:32:51;;;;;;;22.85;11.18;;;;;;;;;;5076587;28;20027;-70
2021/12/17 17:35:17;;;;;;;24.33;11.65;;;;;;;;;;5075853;28;20016;-69
2021/12/17 17:37:44;;;;;;;27.85;12.85;;;;;;;;;;5076309;28;20348;-70
2021/12/17 17:40:11;;;;;;;23.65;12.43;;;;;;;;;;5063345;28;20174;-70
2021/12/17 17:42:37;;;;;;;22.73;11.35;;;;;;;;;;5055815;28;20531;-69
2021/12/17 17:45:05;;;;;;;40.17;15.25;;;;;;;;;;5056019;28;20071;-67
2021/12/17 17:47:31;;;;;;;25.33;11.73;;;;;;;;;;5056266;28;20025;-68
2021/12/17 17:49:57;;;;;;;24.23;11.85;;;;;;;;;;5055814;28;20017;-67
2021/12/17 17:52:24;;;;;;;22.13;11.60;;;;;;;;;;5037753;28;20029;-67
2021/12/17 17:54:50;;;;;;;22.15;11.65;;;;;;;;;;5058929;28;20021;-67
2021/12/17 17:57:16;;;;;;;24.92;12.40;;;;;;;;;;5076289;28;20025;-68
2021/12/17 17:59:51;;;;;;;19.75;11.77;;;;;;;;;;5074061;28;20178;-67
2021/12/17 18:02:20;;;;;;;24.70;12.10;;;;;;;;;;5056945;28;20033;-68
2021/12/17 18:05:12;;;;;;;32.80;16.20;;;;;;;;;;5059261;28;20029;-67
2021/12/17 18:08:01;;;;;;;41.10;20.17;;;;;;;;;;5045960;28;20087;-67
2021/12/17 18:10:27;;;;;;;46.95;23.92;;;;;;;;;;5043717;28;20083;-67